createdAt,value
2022-11-04T00:01:55.279Z,97946.56
2022-11-04T00:04:25.408Z,97963.44
2022-11-04T00:06:54.749Z,97959.09
2022-11-04T00:09:27.187Z,97962.91
2022-11-04T00:12:14.007Z,97966.53
2022-11-04T00:14:42.697Z,97957.81
2022-11-04T00:17:21.985Z,97959.25
2022-11-04T00:20:10.311Z,97949.44
2022-11-04T00:22:57.739Z,97954.97
2022-11-04T00:25:45.295Z,97959.75
2022-11-04T00:28:33.472Z,97963.88
2022-11-04T00:31:23.998Z,97960.31
2022-11-04T00:33:52.585Z,97962.78
2022-11-04T00:36:22.077Z,97976.72
2022-11-04T00:38:50.636Z,97981.34
2022-11-04T00:41:30.365Z,97972.72
2022-11-04T00:44:00.592Z,97980.69
2022-11-04T00:46:29.532Z,97970.22
2022-11-04T00:48:58.241Z,97982.56
2022-11-04T00:51:26.988Z,97983.56
2022-11-04T00:53:55.713Z,97986.00
2022-11-04T00:56:25.462Z,97984.94
2022-11-04T00:58:53.986Z,97987.09
2022-11-04T01:01:22.814Z,97989.91
2022-11-04T01:03:52.710Z,97989.91
2022-11-04T01:06:23.897Z,97995.97
2022-11-04T01:08:56.781Z,98008.63
2022-11-04T01:11:28.210Z,98009.28
2022-11-04T01:13:57.006Z,98013.00
2022-11-04T01:19:00.129Z,98022.25
2022-11-04T01:21:28.480Z,98021.75
2022-11-04T01:23:57.072Z,98034.09
2022-11-04T01:26:28.331Z,98030.44
2022-11-04T01:28:57.926Z,98034.75
2022-11-04T01:31:28.987Z,98025.72
2022-11-04T01:33:58.648Z,98030.16
2022-11-04T01:36:28.240Z,98040.84
2022-11-04T01:38:57.612Z,98037.56
2022-11-04T01:41:29.434Z,98028.84
2022-11-04T01:43:59.539Z,98030.72
2022-11-04T01:46:33.109Z,98025.50
2022-11-04T01:49:07.628Z,98034.00
2022-11-04T01:51:38.666Z,98040.06
2022-11-04T01:54:08.980Z,98028.94
2022-11-04T01:56:40.713Z,98024.63
2022-11-04T01:59:15.010Z,98024.44
2022-11-04T02:01:44.283Z,98019.13
2022-11-04T02:04:26.752Z,98028.69
2022-11-04T02:06:58.094Z,98029.13
2022-11-04T02:09:29.032Z,98033.34
2022-11-04T02:12:16.442Z,98021.19
2022-11-04T02:14:46.559Z,98027.19
2022-11-04T02:17:42.603Z,98026.50
2022-11-04T02:20:30.272Z,98012.69
2022-11-04T02:23:27.524Z,98015.50
2022-11-04T02:26:31.302Z,98012.78
2022-11-04T02:29:28.536Z,98012.00
2022-11-04T02:32:07.291Z,98024.41
2022-11-04T02:34:44.184Z,98015.84
2022-11-04T02:37:23.629Z,98018.53
2022-11-04T02:40:01.599Z,98017.16
2022-11-04T02:42:38.494Z,98014.84
2022-11-04T02:45:17.508Z,98019.94
2022-11-04T02:47:51.571Z,98017.50
2022-11-04T02:50:27.788Z,98012.13
2022-11-04T02:53:00.897Z,98015.91
2022-11-04T02:55:34.740Z,98014.97
2022-11-04T02:58:06.292Z,98017.47
2022-11-04T03:00:40.699Z,98020.72
2022-11-04T03:03:14.661Z,98010.13
2022-11-04T03:05:48.978Z,98012.06
2022-11-04T03:08:21.561Z,98012.34
2022-11-04T03:10:54.153Z,98017.31
2022-11-04T03:13:30.005Z,98017.28
2022-11-04T03:16:03.772Z,98009.97
2022-11-04T03:18:39.646Z,98015.41
2022-11-04T03:21:12.702Z,98021.38
2022-11-04T03:23:41.700Z,98015.16
2022-11-04T03:26:16.219Z,98017.25
2022-11-04T03:28:52.082Z,98017.38
2022-11-04T03:31:27.269Z,98014.97
2022-11-04T03:33:57.120Z,98017.13
2022-11-04T03:36:25.637Z,98007.44
2022-11-04T03:38:54.464Z,98005.16
2022-11-04T03:41:31.160Z,98009.34
2022-11-04T03:43:59.513Z,97993.53
2022-11-04T03:46:29.507Z,97984.06
2022-11-04T03:49:00.213Z,97986.53
2022-11-04T03:51:28.615Z,97986.97
2022-11-04T03:53:57.879Z,97995.81
2022-11-04T03:56:42.090Z,97997.59
2022-11-04T03:59:24.255Z,97998.53
2022-11-04T04:01:57.925Z,97994.09
2022-11-04T04:04:30.280Z,97992.25
2022-11-04T04:07:02.862Z,97992.25
2022-11-04T04:09:39.911Z,98002.59
2022-11-04T04:12:15.987Z,97988.63
2022-11-04T04:14:47.607Z,97987.09
2022-11-04T04:17:22.697Z,97997.63
2022-11-04T04:19:55.313Z,97995.75
2022-11-04T04:22:27.722Z,97990.84
2022-11-04T04:25:16.371Z,97999.75
2022-11-04T04:27:48.105Z,98002.53
2022-11-04T04:30:18.253Z,98007.78
2022-11-04T04:32:51.211Z,98013.84
2022-11-04T04:35:44.092Z,98016.88
2022-11-04T04:38:37.428Z,98022.25
2022-11-04T04:41:29.252Z,98027.22
2022-11-04T04:44:16.639Z,98029.75
2022-11-04T04:46:48.560Z,98029.16
2022-11-04T04:49:18.514Z,98041.31
2022-11-04T04:51:48.932Z,98033.97
2022-11-04T04:54:17.360Z,98033.13
2022-11-04T04:56:45.947Z,98045.53
2022-11-04T04:59:14.708Z,98038.75
2022-11-04T05:01:43.244Z,98027.06
2022-11-04T05:04:11.693Z,98034.34
2022-11-04T05:06:41.578Z,98043.03
2022-11-04T05:09:09.977Z,98034.56
2022-11-04T05:11:38.371Z,98040.19
2022-11-04T05:14:06.774Z,98032.19
2022-11-04T05:16:40.411Z,98032.06
2022-11-04T05:19:09.332Z,98023.19
2022-11-04T05:21:37.842Z,98029.53
2022-11-04T05:24:08.201Z,98029.47
2022-11-04T05:26:36.591Z,98021.38
2022-11-04T05:29:05.023Z,98027.25
2022-11-04T05:31:33.485Z,98022.97
2022-11-04T05:34:01.873Z,98013.94
2022-11-04T05:36:30.252Z,98009.59
2022-11-04T05:38:58.599Z,98018.81
2022-11-04T05:41:28.394Z,98012.06
2022-11-04T05:43:58.388Z,98019.44
2022-11-04T05:46:27.911Z,98019.16
2022-11-04T05:48:56.651Z,98013.78
2022-11-04T05:51:27.405Z,98017.25
2022-11-04T05:53:55.911Z,98014.75
2022-11-04T05:56:24.399Z,98007.84
2022-11-04T05:58:55.049Z,98021.59
2022-11-04T06:01:30.162Z,98018.00
2022-11-04T06:03:59.859Z,98018.97
2022-11-04T06:06:30.327Z,98018.56
2022-11-04T06:08:59.414Z,98026.25
2022-11-04T06:11:30.129Z,98018.63
2022-11-04T06:14:04.660Z,98026.72
2022-11-04T06:16:33.223Z,98028.63
2022-11-04T06:19:05.974Z,98031.34
2022-11-04T06:21:38.032Z,98030.50
2022-11-04T06:24:06.850Z,98028.91
2022-11-04T06:26:35.292Z,98029.28
2022-11-04T06:29:05.117Z,98033.38
2022-11-04T06:31:33.549Z,98037.09
2022-11-04T06:34:01.852Z,98050.09
2022-11-04T06:36:30.512Z,98039.66
2022-11-04T06:39:04.321Z,98048.38
2022-11-04T06:41:33.678Z,98048.28
2022-11-04T06:44:02.044Z,98049.88
2022-11-04T06:46:35.221Z,98044.47
2022-11-04T06:49:04.162Z,98046.03
2022-11-04T06:51:33.326Z,98043.63
2022-11-04T06:54:01.925Z,98045.66
2022-11-04T06:56:30.457Z,98053.72
2022-11-04T06:58:58.801Z,98055.78
2022-11-04T07:01:31.744Z,98064.91
2022-11-04T07:04:02.258Z,98077.31
2022-11-04T07:06:30.736Z,98083.41
2022-11-04T07:09:00.670Z,98087.47
2022-11-04T07:11:31.542Z,98092.38
2022-11-04T07:14:00.043Z,98098.13
2022-11-04T07:16:28.493Z,98096.06
2022-11-04T07:18:58.899Z,98108.28
2022-11-04T07:21:28.757Z,98103.16
2022-11-04T07:23:57.048Z,98100.41
2022-11-04T07:26:25.540Z,98107.03
2022-11-04T07:28:54.015Z,98101.59
2022-11-04T07:31:22.455Z,98108.16
2022-11-04T07:33:51.459Z,98111.53
2022-11-04T07:36:20.759Z,98118.94
2022-11-04T07:38:50.610Z,98125.00
2022-11-04T07:41:19.344Z,98126.50
2022-11-04T07:43:51.461Z,98124.47
2022-11-04T07:46:20.934Z,98129.88
2022-11-04T07:48:49.294Z,98128.22
2022-11-04T07:51:21.668Z,98138.84
2022-11-04T07:53:53.872Z,98143.94
2022-11-04T07:56:24.029Z,98150.53
2022-11-04T07:58:52.753Z,98149.44
2022-11-04T08:01:24.192Z,98146.00
2022-11-04T08:03:53.419Z,98152.88
2022-11-04T08:06:23.356Z,98155.03
2022-11-04T08:08:53.907Z,98166.31
2022-11-04T08:11:28.208Z,98168.16
2022-11-04T08:13:57.211Z,98162.03
2022-11-04T08:16:33.077Z,98168.09
2022-11-04T08:19:02.955Z,98169.88
2022-11-04T08:21:33.244Z,98161.00
2022-11-04T08:24:05.232Z,98165.47
2022-11-04T08:26:33.722Z,98171.28
2022-11-04T08:29:02.430Z,98173.38
2022-11-04T08:31:32.669Z,98176.78
2022-11-04T08:34:01.700Z,98181.38
2022-11-04T08:36:32.521Z,98185.69
2022-11-04T08:39:04.573Z,98187.06
2022-11-04T08:41:41.097Z,98183.56
2022-11-04T08:44:10.212Z,98184.09
2022-11-04T08:46:40.243Z,98185.47
2022-11-04T08:49:11.295Z,98178.56
2022-11-04T08:51:44.974Z,98189.69
2022-11-04T08:54:13.372Z,98189.19
2022-11-04T08:56:43.095Z,98189.09
2022-11-04T08:59:12.436Z,98190.09
2022-11-04T09:01:40.798Z,98184.41
2022-11-04T09:04:11.949Z,98178.53
2022-11-04T09:06:43.791Z,98173.63
2022-11-04T09:09:15.756Z,98178.88
2022-11-04T09:11:47.250Z,98176.63
2022-11-04T09:14:17.648Z,98177.69
2022-11-04T09:16:46.035Z,98174.88
2022-11-04T09:19:14.427Z,98181.91
2022-11-04T09:21:42.823Z,98185.44
2022-11-04T09:24:12.185Z,98183.84
2022-11-04T09:26:40.681Z,98182.22
2022-11-04T09:29:11.308Z,98191.09
2022-11-04T09:31:40.164Z,98187.69
2022-11-04T09:34:08.927Z,98193.69
2022-11-04T09:36:37.254Z,98202.00
2022-11-04T09:39:06.140Z,98198.69
2022-11-04T09:41:50.795Z,98206.13
2022-11-04T09:44:26.190Z,98207.44
2022-11-04T09:46:58.948Z,98201.16
2022-11-04T09:49:30.869Z,98198.09
2022-11-04T09:52:01.191Z,98200.66
2022-11-04T09:54:35.741Z,98209.09
2022-11-04T09:57:05.475Z,98208.34
2022-11-04T09:59:35.823Z,98212.19
2022-11-04T10:02:35.913Z,98211.31
2022-11-04T10:05:20.240Z,98220.66
2022-11-04T10:08:06.761Z,98224.09
2022-11-04T10:10:45.890Z,98217.59
2022-11-04T10:13:29.044Z,98220.25
2022-11-04T10:16:12.072Z,98223.75
2022-11-04T10:18:59.389Z,98228.91
2022-11-04T10:21:42.963Z,98243.66
2022-11-04T10:24:20.414Z,98242.81
2022-11-04T10:27:00.348Z,98237.53
2022-11-04T10:29:34.503Z,98244.75
2022-11-04T10:32:12.925Z,98238.38
2022-11-04T10:34:48.378Z,98238.22
2022-11-04T10:37:16.965Z,98229.75
2022-11-04T10:39:46.951Z,98230.50
2022-11-04T10:42:19.088Z,98237.34
2022-11-04T10:44:50.801Z,98241.84
2022-11-04T10:47:31.244Z,98239.53
2022-11-04T10:50:31.606Z,98236.69
2022-11-04T10:53:14.087Z,98235.84
2022-11-04T10:55:51.831Z,98235.50
2022-11-04T10:58:25.605Z,98238.00
2022-11-04T11:00:55.344Z,98231.31
2022-11-04T11:03:34.162Z,98239.09
2022-11-04T11:06:15.364Z,98241.69
2022-11-04T11:08:45.189Z,98246.84
2022-11-04T11:11:15.247Z,98247.81
2022-11-04T11:13:46.260Z,98248.91
2022-11-04T11:16:19.762Z,98246.66
2022-11-04T11:19:14.002Z,98236.31
2022-11-04T11:21:48.553Z,98256.56
2022-11-04T11:24:21.436Z,98254.06
2022-11-04T11:26:52.913Z,98245.00
2022-11-04T11:29:25.141Z,98254.84
2022-11-04T11:31:55.409Z,98254.81
2022-11-04T11:34:28.743Z,98267.59
2022-11-04T11:36:58.491Z,98258.75
2022-11-04T11:39:29.579Z,98262.63
2022-11-04T11:42:00.633Z,98267.91
2022-11-04T11:44:32.913Z,98280.00
2022-11-04T11:47:03.534Z,98275.91
2022-11-04T11:49:35.877Z,98277.34
2022-11-04T11:52:32.754Z,98285.75
2022-11-04T11:55:07.379Z,98281.94
2022-11-04T12:00:47.036Z,98303.00
2022-11-04T12:03:21.505Z,98308.38
2022-11-04T12:06:17.246Z,98306.19
2022-11-04T12:11:56.048Z,98322.91
2022-11-04T12:14:37.431Z,98327.72
2022-11-04T12:17:15.976Z,98321.94
2022-11-04T12:19:57.618Z,98318.38
2022-11-04T12:22:39.284Z,98325.34
2022-11-04T12:25:17.546Z,98322.91
2022-11-04T12:27:53.217Z,98326.72
2022-11-04T12:30:32.328Z,98323.53
2022-11-04T12:33:19.394Z,98328.31
2022-11-04T12:36:00.631Z,98329.03
2022-11-04T12:38:43.874Z,98331.19
2022-11-04T12:44:22.012Z,98342.47
2022-11-04T12:47:01.066Z,98330.00
2022-11-04T12:49:45.986Z,98342.25
2022-11-04T12:52:30.101Z,98346.09
2022-11-04T12:55:15.118Z,98342.78
2022-11-04T12:57:54.579Z,98337.69
2022-11-04T13:00:25.219Z,98339.59
2022-11-04T13:03:01.700Z,98346.78
2022-11-04T13:05:41.047Z,98356.16
2022-11-04T13:08:18.122Z,98359.84
2022-11-04T13:10:53.994Z,98378.09
2022-11-04T13:13:28.698Z,98378.22
2022-11-04T13:15:58.930Z,98374.59
2022-11-04T13:18:31.498Z,98380.44
2022-11-04T13:21:04.861Z,98386.75
2022-11-04T13:23:39.405Z,98388.66
2022-11-04T13:26:14.497Z,98387.66
2022-11-04T13:28:45.230Z,98386.50
2022-11-04T13:31:23.663Z,98389.06
2022-11-04T13:33:57.214Z,98387.56
2022-11-04T13:36:42.818Z,98399.78
2022-11-04T13:39:19.629Z,98404.69
2022-11-04T13:42:23.325Z,98400.53
2022-11-04T13:44:56.839Z,98404.34
2022-11-04T13:47:30.420Z,98412.81
2022-11-04T13:49:59.512Z,98412.13
2022-11-04T13:52:31.850Z,98414.16
2022-11-04T13:55:04.109Z,98420.16
2022-11-04T13:57:51.344Z,98422.03
2022-11-04T14:00:23.473Z,98421.31
2022-11-04T14:02:52.965Z,98425.81
2022-11-04T14:06:03.489Z,98433.50
2022-11-04T14:08:32.429Z,98435.88
2022-11-04T14:11:12.611Z,98435.63
2022-11-04T14:14:05.250Z,98443.91
2022-11-04T14:16:48.633Z,98442.22
2022-11-04T14:19:59.157Z,98456.50
2022-11-04T14:22:50.175Z,98466.56
2022-11-04T14:25:28.214Z,98461.13
2022-11-04T14:27:58.695Z,98467.75
2022-11-04T14:30:50.732Z,98470.06
2022-11-04T14:33:37.732Z,98473.41
2022-11-04T14:36:26.924Z,98472.13
2022-11-04T14:38:59.425Z,98469.69
2022-11-04T14:41:50.022Z,98478.69
2022-11-04T14:44:22.390Z,98486.91
2022-11-04T14:46:57.057Z,98491.50
2022-11-04T14:49:38.230Z,98500.88
2022-11-04T14:52:15.926Z,98509.19
2022-11-04T14:54:44.530Z,98509.41
2022-11-04T14:57:18.101Z,98505.28
2022-11-04T14:59:47.522Z,98511.78
2022-11-04T15:02:21.097Z,98512.06
2022-11-04T15:04:53.911Z,98514.22
2022-11-04T15:07:32.861Z,98520.84
2022-11-04T15:10:02.135Z,98523.13
2022-11-04T15:12:48.220Z,98524.41
2022-11-04T15:15:29.519Z,98522.81
2022-11-04T15:18:01.642Z,98523.94
2022-11-04T15:20:31.963Z,98536.31
2022-11-04T15:23:03.614Z,98540.03
2022-11-04T15:25:32.670Z,98547.00
2022-11-04T15:28:01.652Z,98544.31
2022-11-04T15:30:31.999Z,98555.53
2022-11-04T15:33:03.996Z,98555.72
2022-11-04T15:35:35.005Z,98561.38
2022-11-04T15:38:04.332Z,98563.16
2022-11-04T15:40:35.233Z,98578.06
2022-11-04T15:43:05.156Z,98575.63
2022-11-04T15:45:38.365Z,98574.13
2022-11-04T15:48:33.598Z,98581.53
2022-11-04T15:51:22.449Z,98593.13
2022-11-04T15:53:56.389Z,98594.94
2022-11-04T15:56:30.018Z,98605.25
2022-11-04T15:59:02.378Z,98603.50
2022-11-04T16:01:32.650Z,98614.38
2022-11-04T16:08:19.783Z,98616.19
2022-11-04T16:10:49.327Z,98622.50
2022-11-04T16:13:25.690Z,98624.19
2022-11-04T16:16:09.139Z,98624.44
2022-11-04T16:18:40.219Z,98625.75
2022-11-04T16:21:14.051Z,98632.25
2022-11-04T16:23:47.154Z,98641.06
2022-11-04T16:26:15.980Z,98647.63
2022-11-04T16:28:44.553Z,98639.34
2022-11-04T16:31:26.891Z,98641.25
2022-11-04T16:33:55.924Z,98651.00
2022-11-04T16:36:30.895Z,98645.91
2022-11-04T16:39:04.731Z,98651.41
2022-11-04T16:41:37.057Z,98651.53
2022-11-04T16:44:06.810Z,98654.75
2022-11-04T16:46:35.325Z,98661.06
2022-11-04T16:49:03.657Z,98656.94
2022-11-04T16:51:34.457Z,98662.44
2022-11-04T16:54:02.804Z,98675.69
2022-11-04T16:56:31.162Z,98672.38
2022-11-04T16:58:59.632Z,98681.22
2022-11-04T17:01:28.527Z,98687.28
2022-11-04T17:03:57.027Z,98675.22
2022-11-04T17:06:25.564Z,98674.41
2022-11-04T17:08:56.295Z,98683.13
2022-11-04T17:11:30.968Z,98692.69
2022-11-04T17:13:59.571Z,98702.22
2022-11-04T17:16:27.958Z,98701.28
2022-11-04T17:18:56.489Z,98710.72
2022-11-04T17:21:26.245Z,98706.94
2022-11-04T17:23:57.145Z,98707.69
2022-11-04T17:26:25.580Z,98717.25
2022-11-04T17:28:53.945Z,98706.84
2022-11-04T17:31:22.771Z,98714.78
2022-11-04T17:33:51.093Z,98723.63
2022-11-04T17:36:20.460Z,98722.88
2022-11-04T17:39:57.705Z,98720.41
2022-11-04T17:42:44.971Z,98721.31
2022-11-04T17:45:13.371Z,98728.56
2022-11-04T17:47:42.593Z,98733.63
2022-11-04T17:50:11.316Z,98740.50
2022-11-04T17:52:40.027Z,98746.63
2022-11-04T17:55:15.435Z,98753.44
2022-11-04T17:57:47.288Z,98753.47
2022-11-04T18:00:16.342Z,98754.31
2022-11-04T18:02:44.855Z,98757.91
2022-11-04T18:05:13.397Z,98762.97
2022-11-04T18:07:42.135Z,98772.25
2022-11-04T18:10:11.357Z,98781.25
2022-11-04T18:12:41.345Z,98783.84
2022-11-04T18:15:13.804Z,98783.97
2022-11-04T18:17:43.522Z,98785.72
2022-11-04T18:20:15.227Z,98789.34
2022-11-04T18:22:44.414Z,98793.84
2022-11-04T18:25:13.354Z,98791.38
2022-11-04T18:27:42.181Z,98798.22
2022-11-04T18:30:13.805Z,98796.59
2022-11-04T18:32:42.656Z,98798.44
2022-11-04T18:35:11.025Z,98806.50
2022-11-04T18:37:46.795Z,98810.81
2022-11-04T18:40:16.262Z,98816.00
2022-11-04T18:42:45.092Z,98807.47
2022-11-04T18:45:14.922Z,98822.38
2022-11-04T18:47:44.517Z,98821.44
2022-11-04T18:50:13.964Z,98824.94
2022-11-04T18:52:43.590Z,98823.47
2022-11-04T18:55:25.891Z,98823.41
2022-11-04T18:58:09.584Z,98813.03
2022-11-04T19:00:40.074Z,98825.09
2022-11-04T19:03:08.467Z,98833.03
2022-11-04T19:05:40.686Z,98836.59
2022-11-04T19:08:09.350Z,98837.41
2022-11-04T19:10:57.691Z,98840.25
2022-11-04T19:13:27.787Z,98830.75
2022-11-04T19:16:05.470Z,98837.78
2022-11-04T19:18:33.942Z,98839.44
2022-11-04T19:21:05.831Z,98831.66
2022-11-04T19:23:35.099Z,98843.97
2022-11-04T19:26:07.844Z,98849.34
2022-11-04T19:28:47.647Z,98850.22
2022-11-04T19:31:21.513Z,98853.97
2022-11-04T19:33:51.307Z,98861.84
2022-11-04T19:36:22.212Z,98855.81
2022-11-04T19:38:55.862Z,98864.53
2022-11-04T19:41:43.123Z,98865.31
2022-11-04T19:44:14.163Z,98873.19
2022-11-04T19:46:44.732Z,98878.28
2022-11-04T19:49:13.534Z,98886.31
2022-11-04T19:51:42.770Z,98889.81
2022-11-04T19:54:11.946Z,98898.59
2022-11-04T19:56:40.370Z,98902.13
2022-11-04T19:59:10.103Z,98894.13
2022-11-04T20:01:38.851Z,98898.66
2022-11-04T20:04:08.914Z,98905.63
2022-11-04T20:06:37.616Z,98901.19
2022-11-04T20:09:10.758Z,98911.03
2022-11-04T20:11:56.014Z,98913.63
2022-11-04T20:14:24.660Z,98919.09
2022-11-04T20:16:56.562Z,98919.06
2022-11-04T20:19:26.591Z,98922.72
2022-11-04T20:21:55.097Z,98935.03
2022-11-04T20:24:25.226Z,98921.41
2022-11-04T20:26:53.923Z,98931.03
2022-11-04T20:29:22.380Z,98945.19
2022-11-04T20:31:50.885Z,98953.09
2022-11-04T20:34:19.812Z,98941.00
2022-11-04T20:36:49.705Z,98960.16
2022-11-04T20:39:20.455Z,98966.34
2022-11-04T20:41:49.056Z,98964.44
2022-11-04T20:44:17.874Z,98976.84
2022-11-04T20:46:47.181Z,98983.91
2022-11-04T20:49:15.588Z,98976.97
2022-11-04T20:51:54.409Z,98992.88
2022-11-04T20:54:25.100Z,98988.44
2022-11-04T20:56:53.899Z,98990.13
2022-11-04T20:59:22.389Z,98997.38
2022-11-04T21:01:51.361Z,99011.31
2022-11-04T21:04:23.076Z,99006.91
2022-11-04T21:06:52.460Z,99008.00
2022-11-04T21:09:22.301Z,99002.75
2022-11-04T21:11:52.789Z,99016.94
2022-11-04T21:14:21.468Z,99023.03
2022-11-04T21:16:49.851Z,99022.94
2022-11-04T21:19:20.096Z,99032.59
2022-11-04T21:21:48.523Z,99041.31
2022-11-04T21:24:17.487Z,99038.72
2022-11-04T21:26:46.797Z,99046.75
2022-11-04T21:29:20.007Z,99053.06
2022-11-04T21:31:49.477Z,99052.25
2022-11-04T21:34:17.934Z,99051.50
2022-11-04T21:36:46.744Z,99051.72
2022-11-04T21:39:15.082Z,99062.28
2022-11-04T21:41:43.471Z,99064.97
2022-11-04T21:44:14.040Z,99065.00
2022-11-04T21:46:44.157Z,99067.78
2022-11-04T21:49:13.913Z,99074.72
2022-11-04T21:51:42.312Z,99065.16
2022-11-04T21:54:11.705Z,99064.22
2022-11-04T21:56:40.155Z,99057.41
2022-11-04T21:59:08.490Z,99059.44
2022-11-04T22:01:37.017Z,99073.72
2022-11-04T22:04:07.451Z,99070.56
2022-11-04T22:06:35.974Z,99081.31
2022-11-04T22:09:06.008Z,99084.13
2022-11-04T22:11:36.475Z,99092.00
2022-11-04T22:14:07.344Z,99097.47
2022-11-04T22:16:38.711Z,99101.97
2022-11-04T22:19:10.684Z,99104.72
2022-11-04T22:21:40.779Z,99105.84
2022-11-04T22:24:10.890Z,99102.44
2022-11-04T22:26:39.763Z,99101.59
2022-11-04T22:29:08.444Z,99096.34
2022-11-04T22:31:38.696Z,99099.91
2022-11-04T22:34:09.811Z,99102.78
2022-11-04T22:36:39.564Z,99101.34
2022-11-04T22:39:11.934Z,99108.44
2022-11-04T22:41:43.712Z,99117.19
2022-11-04T22:44:12.466Z,99119.00
2022-11-04T22:46:40.844Z,99112.97
2022-11-04T22:49:10.566Z,99113.09
2022-11-04T22:51:39.079Z,99118.31
2022-11-04T22:54:08.716Z,99113.22
2022-11-04T22:56:37.747Z,99120.25
2022-11-04T22:59:06.417Z,99123.75
2022-11-04T23:01:35.069Z,99118.53
2022-11-04T23:04:03.714Z,99128.28
2022-11-04T23:06:33.530Z,99135.38
2022-11-04T23:09:01.866Z,99136.38
2022-11-04T23:11:48.894Z,99138.97
2022-11-04T23:14:35.945Z,99134.53
2022-11-04T23:17:29.850Z,99145.88
2022-11-04T23:19:58.211Z,99144.22
2022-11-04T23:22:45.459Z,99141.84
2022-11-04T23:25:14.526Z,99141.03
2022-11-04T23:28:02.861Z,99145.50
2022-11-04T23:30:33.804Z,99135.09
2022-11-04T23:33:03.497Z,99139.38
2022-11-04T23:35:52.181Z,99133.22
2022-11-04T23:38:22.539Z,99140.28
2022-11-04T23:41:06.259Z,99135.13
2022-11-04T23:43:34.986Z,99133.34
2022-11-04T23:46:21.455Z,99145.50
2022-11-04T23:49:22.238Z,99150.59
2022-11-04T23:52:08.090Z,99163.16
2022-11-04T23:54:55.366Z,99162.97
2022-11-04T23:57:41.053Z,99165.25
